Time;durP1;ratioP1;P1;durP2;ratioP2;P2;SDS_P1;SDS_P2;PMS_P1;PMS_P2;Temp;Humidity;BMP_temperature;BMP_pressure;BME280_temperature;BME280_humidity;BME280_pressure;Samples;Min_cycle;Max_cycle;Signal;HPM_P1;HPM_P2
2024/03/31 00:00:26;;;;;;;6.07;3.03;;;;;;;11.39;72.23;97191.91;5093299;28;41606;-77
2024/03/31 00:02:54;;;;;;;7.73;3.27;;;;;;;11.41;71.92;97184.66;5093754;28;41151;-78
2024/03/31 00:05:22;;;;;;;5.47;3.10;;;;;;;11.43;72.11;97188.03;5093588;28;40175;-79
2024/03/31 00:07:49;;;;;;;6.83;3.27;;;;;;;11.45;72.45;97191.38;5110468;28;42901;-77
2024/03/31 00:10:16;;;;;;;11.53;3.30;;;;;;;11.46;72.36;97185.94;5076815;28;41954;-78
2024/03/31 00:12:44;;;;;;;8.40;3.53;;;;;;;11.45;72.42;97172.81;5093213;28;42730;-78
2024/03/31 00:15:11;;;;;;;8.53;3.47;;;;;;;11.47;72.92;97162.91;5094571;28;40066;-77
2024/03/31 00:17:38;;;;;;;8.60;3.50;;;;;;;11.31;72.73;97133.50;5093402;28;41893;-78
2024/03/31 00:20:05;;;;;;;10.93;3.27;;;;;;;11.37;72.62;97140.91;5093759;28;41630;-77
2024/03/31 00:22:37;;;;;;;8.37;3.20;;;;;;;11.48;72.28;97167.25;5092961;28;42425;-78
2024/03/31 00:25:03;;;;;;;9.80;3.30;;;;;;;11.47;72.37;97173.50;5093247;28;40156;-77
2024/03/31 00:27:33;;;;;;;7.13;3.53;;;;;;;11.48;73.48;97175.19;5092953;28;42042;-77
2024/03/31 00:30:00;;;;;;;7.77;3.60;;;;;;;11.46;73.70;97170.03;5127475;27;42873;-78
2024/03/31 00:32:27;;;;;;;11.40;4.37;;;;;;;11.43;73.88;97166.81;5075930;28;41223;-77
2024/03/31 00:34:54;;;;;;;9.37;3.93;;;;;;;11.48;74.30;97173.38;5094717;28;40762;-77
2024/03/31 00:37:21;;;;;;;12.37;4.70;;;;;;;11.47;74.60;97178.81;5075705;28;40997;-77
2024/03/31 00:39:50;;;;;;;9.67;3.43;;;;;;;11.47;74.56;97173.50;5110189;28;41587;-77
2024/03/31 00:42:17;;;;;;;11.20;4.07;;;;;;;11.46;74.24;97177.97;5076087;28;41622;-77
2024/03/31 00:44:44;;;;;;;6.67;3.57;;;;;;;11.47;74.55;97168.22;5109548;28;39049;-78
2024/03/31 00:47:11;;;;;;;9.13;3.90;;;;;;;11.47;74.61;97163.75;5092977;28;41775;-77
2024/03/31 00:49:37;;;;;;;8.70;4.00;;;;;;;11.49;74.56;97171.56;5093019;28;42731;-77
2024/03/31 00:52:06;;;;;;;8.47;3.70;;;;;;;11.50;74.42;97167.91;5092437;28;43031;-77
2024/03/31 00:54:32;;;;;;;16.20;4.73;;;;;;;11.50;75.59;97173.22;5109872;28;41315;-77
2024/03/31 00:57:01;;;;;;;11.50;5.17;;;;;;;11.47;76.45;97173.50;5126770;27;42023;-77
2024/03/31 00:59:28;;;;;;;7.20;3.23;;;;;;;11.45;76.47;97188.72;5092425;28;44627;-78
2024/03/31 01:01:55;;;;;;;9.83;4.43;;;;;;;11.46;75.90;97195.69;5109342;28;41447;-77
2024/03/31 01:04:22;;;;;;;8.93;3.57;;;;;;;11.47;76.04;97200.03;5092727;28;38869;-77
2024/03/31 01:06:49;;;;;;;13.50;4.10;;;;;;;11.48;75.68;97213.13;5092499;28;42097;-77
2024/03/31 01:09:16;;;;;;;9.80;4.07;;;;;;;11.48;75.78;97213.13;5075576;28;42091;-77
2024/03/31 01:11:44;;;;;;;5.53;3.07;;;;;;;11.51;75.15;97206.69;5109574;28;43845;-78
2024/03/31 01:14:12;;;;;;;10.13;4.53;;;;;;;11.52;75.56;97205.72;5093767;28;39993;-77
2024/03/31 01:16:40;;;;;;;16.50;4.43;;;;;;;11.50;75.72;97203.19;5093429;28;42648;-77
2024/03/31 01:19:07;;;;;;;15.80;4.43;;;;;;;11.53;76.11;97215.34;5093581;28;43784;-78
2024/03/31 01:21:35;;;;;;;10.63;4.50;;;;;;;11.52;77.25;97225.09;5092344;28;42253;-78
2024/03/31 01:24:04;;;;;;;18.07;5.70;;;;;;;11.50;78.05;97220.91;5075675;28;38816;-77
2024/03/31 01:26:31;;;;;;;20.47;5.33;;;;;;;11.49;78.67;97224.56;5091900;28;41860;-77
2024/03/31 01:28:58;;;;;;;12.50;4.90;;;;;;;11.50;79.38;97236.81;5075272;28;43125;-78
2024/03/31 01:31:25;;;;;;;12.23;4.83;;;;;;;11.49;80.20;97237.81;5108521;28;40954;-78
2024/03/31 01:33:52;;;;;;;11.70;4.53;;;;;;;11.52;80.29;97237.53;5092732;28;40918;-77
2024/03/31 01:36:20;;;;;;;10.60;4.33;;;;;;;11.52;80.50;97241.00;5126271;27;41986;-77
2024/03/31 01:38:46;;;;;;;10.97;4.63;;;;;;;11.55;79.61;97239.91;5075133;28;41515;-77
2024/03/31 01:41:15;;;;;;;9.73;4.37;;;;;;;11.57;79.60;97243.25;5126236;27;42334;-77
2024/03/31 01:43:41;;;;;;;14.20;3.83;;;;;;;11.51;80.02;97231.38;5125941;27;40739;-77
2024/03/31 01:46:09;;;;;;;10.10;4.00;;;;;;;11.62;79.50;97241.00;5091566;28;42232;-77
2024/03/31 01:48:36;;;;;;;6.00;3.20;;;;;;;11.65;79.15;97248.69;5074948;28;41782;-77
2024/03/31 01:51:03;;;;;;;7.87;3.77;;;;;;;11.68;78.93;97251.03;5073683;28;42765;-77
2024/03/31 01:53:30;;;;;;;10.10;3.37;;;;;;;11.69;78.29;97246.59;5126247;27;39903;-77
2024/03/31 01:55:57;;;;;;;9.23;3.17;;;;;;;11.72;79.03;97257.75;5074800;28;40882;-78
2024/03/31 01:58:25;;;;;;;7.33;3.20;;;;;;;11.74;79.42;97261.09;5109054;28;42803;-77
2024/03/31 02:00:52;;;;;;;10.03;3.23;;;;;;;11.71;79.14;97249.94;5074552;28;41352;-77
2024/03/31 02:03:19;;;;;;;9.90;3.10;;;;;;;11.72;78.78;97252.44;5092077;28;39719;-78
2024/03/31 02:05:46;;;;;;;9.77;3.20;;;;;;;11.82;79.11;97263.91;5074828;28;41611;-77
2024/03/31 02:08:13;;;;;;;7.57;2.90;;;;;;;11.83;79.12;97265.56;5126176;27;43494;-77
2024/03/31 02:10:41;;;;;;;7.60;2.90;;;;;;;11.73;78.57;97227.59;5074717;28;41449;-78
2024/03/31 02:13:08;;;;;;;6.73;2.93;;;;;;;11.86;78.35;97233.47;5092089;28;38926;-77
2024/03/31 02:15:37;;;;;;;6.97;2.90;;;;;;;11.87;78.08;97235.13;5074218;28;41725;-78
2024/03/31 02:18:04;;;;;;;8.13;3.37;;;;;;;11.88;78.57;97242.09;5108457;28;43106;-78
2024/03/31 02:20:31;;;;;;;9.63;3.57;;;;;;;11.85;79.67;97252.19;5074244;28;42508;-77
2024/03/31 02:22:58;;;;;;;7.67;3.17;;;;;;;11.82;79.68;97240.03;5125821;27;39918;-78
2024/03/31 02:25:25;;;;;;;6.00;3.03;;;;;;;11.81;79.18;97251.63;5091414;28;41709;-77
2024/03/31 02:27:52;;;;;;;7.53;2.90;;;;;;;11.84;78.79;97247.84;5092690;28;42795;-77
2024/03/31 02:30:19;;;;;;;9.37;3.17;;;;;;;11.84;78.80;97250.50;5074675;28;42041;-78
2024/03/31 02:32:47;;;;;;;7.60;2.83;;;;;;;11.83;79.04;97239.06;5074428;28;39729;-77
2024/03/31 02:35:15;;;;;;;8.93;3.50;;;;;;;11.83;80.18;97244.34;5091678;28;42449;-77
2024/03/31 02:37:41;;;;;;;8.47;3.20;;;;;;;11.81;79.92;97251.63;5125306;27;43454;-77
2024/03/31 02:40:09;;;;;;;5.60;3.10;;;;;;;11.65;79.70;97224.81;5108441;28;42183;-77
2024/03/31 02:42:38;;;;;;;7.33;2.83;;;;;;;11.81;79.17;97251.63;5074029;28;38901;-77
2024/03/31 02:45:06;;;;;;;8.30;2.93;;;;;;;11.65;80.36;97232.75;5125032;27;42813;-78
2024/03/31 02:47:33;;;;;;;13.07;3.70;;;;;;;11.66;80.60;97246.84;5090858;28;42696;-77
2024/03/31 02:50:05;;;;;;;10.23;3.77;;;;;;;11.63;81.28;97242.66;5108215;28;41276;-77
2024/03/31 02:52:32;;;;;;;10.57;3.80;;;;;;;11.66;80.93;97249.50;5107957;28;38669;-78
2024/03/31 02:54:59;;;;;;;16.67;3.37;;;;;;;11.64;80.49;97248.81;5074356;28;41449;-78
2024/03/31 02:57:26;;;;;;;8.40;3.03;;;;;;;11.62;80.01;97254.25;5073739;28;45081;-78
2024/03/31 02:59:53;;;;;;;9.90;2.53;;;;;;;11.48;79.96;97249.41;5108124;28;41272;-77
2024/03/31 03:02:20;;;;;;;5.13;2.77;;;;;;;11.53;79.89;97260.41;5093793;28;40920;-78
2024/03/31 03:04:48;;;;;;;6.90;2.37;;;;;;;11.49;79.86;97251.09;5077723;28;40938;-77
2024/03/31 03:07:17;;;;;;;8.37;2.70;;;;;;;11.46;79.44;97243.41;5111153;28;43020;-77
2024/03/31 03:09:44;;;;;;;9.30;3.03;;;;;;;11.41;79.32;97237.69;5094635;28;43218;-78
2024/03/31 03:12:12;;;;;;;5.40;2.57;;;;;;;11.40;79.50;97225.41;5077442;28;38753;-78
2024/03/31 03:14:39;;;;;;;6.43;2.83;;;;;;;11.37;79.10;97226.53;5094690;28;41707;-78
2024/03/31 03:17:07;;;;;;;3.73;2.43;;;;;;;11.27;79.30;97224.84;5094213;28;43767;-77
2024/03/31 03:19:33;;;;;;;4.20;2.43;;;;;;;11.32;79.03;97227.94;5111549;28;41035;-77
2024/03/31 03:22:01;;;;;;;4.90;1.90;;;;;;;11.31;79.36;97220.94;5077026;28;38415;-77
2024/03/31 03:24:29;;;;;;;6.67;2.80;;;;;;;11.28;79.30;97211.47;5077421;28;41622;-76
2024/03/31 03:26:56;;;;;;;6.50;2.50;;;;;;;11.26;79.32;97208.09;5094249;28;42721;-76
2024/03/31 03:29:23;;;;;;;5.77;2.30;;;;;;;11.22;79.21;97205.91;5111050;28;43817;-78
2024/03/31 03:31:50;;;;;;;14.27;2.97;;;;;;;11.22;80.57;97206.75;5128291;27;39938;-77
2024/03/31 03:34:17;;;;;;;8.40;2.67;;;;;;;11.22;81.07;97195.31;5093981;28;41461;-78
2024/03/31 03:36:44;;;;;;;11.40;2.80;;;;;;;11.18;81.18;97178.00;5077225;28;43678;-78
2024/03/31 03:39:12;;;;;;;8.47;2.70;;;;;;;11.28;81.21;97190.25;5077298;28;41997;-78
2024/03/31 03:41:41;;;;;;;6.33;2.47;;;;;;;11.33;81.21;97192.50;5076892;28;40249;-76
2024/03/31 03:44:09;;;;;;;4.00;2.13;;;;;;;11.36;81.27;97193.06;5110817;28;40506;-77
2024/03/31 03:46:35;;;;;;;9.63;2.80;;;;;;;11.40;81.39;97186.47;5110556;28;41410;-77
2024/03/31 03:49:03;;;;;;;8.43;1.90;;;;;;;11.41;81.32;97182.03;5094293;28;42216;-77
2024/03/31 03:51:30;;;;;;;6.60;2.43;;;;;;;11.46;80.82;97182.44;5093559;28;39846;-77
2024/03/31 03:53:57;;;;;;;10.93;2.53;;;;;;;11.40;80.70;97172.41;5111359;28;41937;-77
2024/03/31 03:56:23;;;;;;;4.60;1.80;;;;;;;11.47;81.12;97184.97;5093732;28;42605;-76
2024/03/31 03:58:52;;;;;;;5.97;1.93;;;;;;;11.48;80.84;97180.50;5128116;27;42476;-77
2024/03/31 04:01:19;;;;;;;5.90;2.20;;;;;;;11.49;80.76;97176.88;5110478;28;39444;-77
2024/03/31 07:04:31;;;;;;;5.03;1.80;;;;;;;12.78;100.00;97240.59;5109222;28;20551;-77
2024/03/31 07:06:58;;;;;;;5.27;2.33;;;;;;;13.53;96.71;97252.69;5090481;28;39017;-77
2024/03/31 07:09:26;;;;;;;7.37;2.23;;;;;;;14.05;92.34;97252.75;5107969;28;41837;-77
2024/03/31 07:11:53;;;;;;;7.80;2.43;;;;;;;14.35;86.70;97254.91;5109037;28;42591;-77
2024/03/31 07:14:20;;;;;;;7.03;1.73;;;;;;;14.62;84.30;97257.41;5124494;27;41205;-78
2024/03/31 07:16:49;;;;;;;8.60;1.77;;;;;;;15.11;82.07;97262.91;5142161;27;39951;-78
2024/03/31 07:19:17;;;;;;;9.20;1.97;;;;;;;15.74;77.51;97265.84;5107666;28;40905;-77
2024/03/31 07:21:45;;;;;;;13.83;2.33;;;;;;;16.41;73.46;97268.28;5107759;28;42653;-79
2024/03/31 07:24:12;;;;;;;10.60;2.07;;;;;;;17.13;69.75;97274.34;5107183;28;44022;-78
2024/03/31 07:26:39;;;;;;;6.40;1.87;;;;;;;17.89;66.93;97279.72;5109033;28;41095;-78
2024/03/31 07:29:06;;;;;;;8.37;2.00;;;;;;;18.23;64.64;97289.13;5124179;27;39950;-80
2024/03/31 07:31:33;;;;;;;8.23;1.90;;;;;;;18.30;63.36;97282.84;5107772;28;42707;-78
2024/03/31 07:34:01;;;;;;;7.63;2.20;;;;;;;18.41;63.33;97260.16;5141463;27;42485;-78
2024/03/31 07:36:27;;;;;;;5.80;1.60;;;;;;;19.21;62.45;97286.19;5107649;28;40697;-78
2024/03/31 07:38:56;;;;;;;4.87;1.87;;;;;;;19.66;59.14;97293.94;5089979;28;40945;-78
2024/03/31 07:41:23;;;;;;;10.73;2.30;;;;;;;20.03;58.85;97268.66;5107147;28;42782;-78
2024/03/31 07:43:50;;;;;;;7.40;1.93;;;;;;;20.68;57.37;97282.81;5108041;28;43116;-78
2024/03/31 07:46:16;;;;;;;6.83;2.20;;;;;;;21.22;53.60;97285.63;5108411;28;40860;-79
2024/03/31 07:48:44;;;;;;;10.20;2.47;;;;;;;21.49;53.18;97284.69;5107256;28;42436;-79
2024/03/31 07:51:10;;;;;;;9.30;2.70;;;;;;;21.79;51.46;97277.06;5106953;28;42723;-78
2024/03/31 07:53:38;;;;;;;6.70;2.10;;;;;;;22.34;51.30;97271.53;5107057;28;42142;-78
2024/03/31 07:56:06;;;;;;;4.33;1.67;;;;;;;23.32;48.05;97283.97;5107259;28;38735;-78
2024/03/31 07:58:33;;;;;;;5.57;1.97;;;;;;;23.90;44.91;97300.94;5107042;28;41646;-79
2024/03/31 08:01:00;;;;;;;7.53;1.83;;;;;;;23.84;44.45;97277.47;5108397;28;42982;-79
2024/03/31 08:03:28;;;;;;;5.17;1.97;;;;;;;23.71;44.30;97287.53;5106417;28;43861;-78
2024/03/31 08:05:55;;;;;;;10.80;2.10;;;;;;;23.57;44.92;97284.09;5090212;28;39473;-79
2024/03/31 08:08:22;;;;;;;5.47;1.50;;;;;;;23.46;44.80;97277.47;5106458;28;41515;-78
2024/03/31 08:10:49;;;;;;;4.50;1.70;;;;;;;23.45;45.54;97250.66;5108197;28;43591;-78
2024/03/31 08:13:18;;;;;;;6.73;1.60;;;;;;;23.63;44.67;97270.53;5106911;28;42415;-79
2024/03/31 08:15:45;;;;;;;4.57;1.90;;;;;;;23.55;44.90;97261.84;5110672;27;40277;-79
2024/03/31 08:18:13;;;;;;;8.77;2.20;;;;;;;23.43;45.35;97258.97;5094521;28;42666;-79
2024/03/31 08:20:39;;;;;;;5.17;1.53;;;;;;;23.13;43.78;97264.09;5127291;27;42510;-79
2024/03/31 08:23:07;;;;;;;5.90;1.77;;;;;;;22.92;45.71;97245.47;5127110;27;42134;-78
2024/03/31 08:25:37;;;;;;;7.10;1.97;;;;;;;22.88;46.56;97228.03;5110003;28;39224;-78
2024/03/31 08:28:05;;;;;;;6.90;2.30;;;;;;;22.83;45.78;97198.19;5126596;27;41804;-78
2024/03/31 08:30:34;;;;;;;6.20;1.70;;;;;;;23.47;45.13;97199.94;5109563;28;43003;-79
2024/03/31 08:33:00;;;;;;;5.53;1.40;;;;;;;24.67;44.76;97206.84;5094097;28;43115;-78
2024/03/31 08:35:28;;;;;;;8.60;2.00;;;;;;;25.59;42.60;97188.59;5093040;28;40258;-79
2024/03/31 08:37:55;;;;;;;5.47;1.83;;;;;;;27.14;39.79;97252.31;5092486;28;41846;-79
2024/03/31 08:40:27;;;;;;;6.18;1.75;;;;;;;28.23;37.87;97247.59;5092318;28;41756;-79
2024/03/31 08:43:03;;;;;;;7.45;1.77;;;;;;;29.32;36.41;97279.72;5090613;28;42511;-79
2024/03/31 08:45:31;;;;;;;8.00;1.90;;;;;;;30.54;32.52;97289.25;5123782;27;39997;-79
2024/03/31 08:48:00;;;;;;;8.45;1.90;;;;;;;31.32;31.47;97298.50;5093746;28;42002;-79
2024/03/31 08:50:27;;;;;;;7.50;1.60;;;;;;;31.75;32.13;97276.25;5109490;28;42060;-79
2024/03/31 08:52:54;;;;;;;7.28;1.63;;;;;;;31.44;30.46;97288.16;5075465;28;42296;-79
2024/03/31 08:55:21;;;;;;;6.97;1.58;;;;;;;32.09;29.74;97298.50;5093911;28;39759;-79
2024/03/31 08:57:48;;;;;;;8.48;1.88;;;;;;;32.93;28.25;97291.69;5092283;28;41739;-79
2024/03/31 09:00:16;;;;;;;8.23;1.98;;;;;;;34.21;27.19;97301.09;5092211;28;42051;-80
2024/03/31 09:02:42;;;;;;;7.32;1.90;;;;;;;34.43;27.79;97301.50;5074942;28;41016;-80
2024/03/31 09:05:11;;;;;;;7.22;1.63;;;;;;;34.79;26.83;97312.22;5093651;28;40920;-80
2024/03/31 09:07:38;;;;;;;5.72;1.60;;;;;;;35.12;25.46;97319.59;5093417;28;42149;-80
2024/03/31 09:10:07;;;;;;;9.70;2.22;;;;;;;35.25;26.98;97305.16;5092156;28;43475;-80
2024/03/31 09:12:33;;;;;;;6.10;1.77;;;;;;;36.02;26.35;97306.97;5093043;28;42630;-78
2024/03/31 09:15:02;;;;;;;7.45;1.98;;;;;;;37.24;25.32;97316.88;5093555;28;41056;-80
2024/03/31 09:17:33;;;;;;;5.32;1.92;;;;;;;38.09;23.38;97325.38;5091857;28;42307;-81
2024/03/31 09:20:02;;;;;;;10.40;2.35;;;;;;;38.67;23.22;97321.03;5092969;28;44251;-80
2024/03/31 09:22:30;;;;;;;6.32;1.85;;;;;;;38.95;21.81;97289.28;5108364;28;41344;-79
2024/03/31 09:24:57;;;;;;;8.70;2.65;;;;;;;39.06;21.02;97336.94;5091895;28;40087;-78
2024/03/31 09:27:24;;;;;;;14.30;2.65;;;;;;;38.32;20.84;97342.88;5090434;28;41726;-79
2024/03/31 09:29:52;;;;;;;9.60;2.13;;;;;;;37.31;22.31;97312.63;5108729;28;42291;-78
2024/03/31 09:32:19;;;;;;;8.05;2.30;;;;;;;36.66;23.75;97307.13;5092752;28;42973;-80
2024/03/31 09:34:48;;;;;;;11.50;2.67;;;;;;;36.24;23.00;97316.31;5074851;28;38928;-79
2024/03/31 09:37:15;;;;;;;11.45;2.22;;;;;;;35.63;23.27;97311.59;5074237;28;43783;-80
2024/03/31 09:39:44;;;;;;;7.00;2.22;;;;;;;35.58;23.38;97297.09;5093001;28;42672;-78
2024/03/31 09:42:11;;;;;;;8.98;2.35;;;;;;;35.37;24.81;97281.91;5074647;28;43249;-79
2024/03/31 09:44:41;;;;;;;8.70;2.33;;;;;;;34.97;24.88;97281.25;5091734;28;40220;-80
2024/03/31 09:47:22;;;;;;;9.40;3.17;;;;;;;33.70;25.46;97284.88;5091141;28;42160;-80
2024/03/31 09:50:00;;;;;;;9.65;2.42;;;;;;;32.72;27.34;97263.50;5122971;27;42796;-80
2024/03/31 09:52:32;;;;;;;10.85;2.92;;;;;;;32.14;27.61;97256.63;5090108;28;43318;-80
2024/03/31 09:55:11;;;;;;;9.82;3.15;;;;;;;31.78;29.01;97255.72;5090016;28;39977;-80
2024/03/31 09:57:41;;;;;;;10.85;2.92;;;;;;;31.60;29.33;97235.13;5090537;28;41453;-79
2024/03/31 10:00:12;;;;;;;11.30;2.88;;;;;;;31.47;28.02;97232.06;5089483;28;42884;-79
2024/03/31 10:02:44;;;;;;;10.30;3.72;;;;;;;31.77;27.89;97230.25;5073834;28;42862;-80
2024/03/31 10:05:17;;;;;;;14.07;3.17;;;;;;;32.22;27.79;97241.56;5091754;28;38830;-79
2024/03/31 10:07:44;;;;;;;10.65;3.28;;;;;;;32.37;27.70;97242.41;5123420;27;41688;-79
2024/03/31 10:10:14;;;;;;;10.60;2.75;;;;;;;32.52;28.74;97232.53;5092720;28;44378;-81
2024/03/31 10:12:43;;;;;;;11.23;3.58;;;;;;;32.25;27.69;97250.06;5074426;28;41170;-80
2024/03/31 10:15:12;;;;;;;12.57;2.53;;;;;;;31.97;28.86;97229.47;5092570;28;40363;-80
2024/03/31 10:17:41;;;;;;;9.73;3.03;;;;;;;32.07;29.12;97223.19;5091060;28;41970;-80
2024/03/31 10:20:11;;;;;;;12.40;2.80;;;;;;;32.36;28.73;97239.94;5092284;28;43795;-80
2024/03/31 10:22:38;;;;;;;8.98;2.92;;;;;;;32.61;28.39;97222.66;5090928;28;43156;-79
2024/03/31 10:25:09;;;;;;;12.23;3.30;;;;;;;32.16;26.52;97248.09;5074037;28;39135;-80
2024/03/31 10:27:40;;;;;;;13.77;3.65;;;;;;;31.82;28.47;97223.16;5092280;28;41331;-79
2024/03/31 10:30:09;;;;;;;14.73;3.80;;;;;;;31.68;28.36;97215.47;5088055;28;42870;-80
2024/03/31 10:32:36;;;;;;;12.90;3.10;;;;;;;31.88;28.28;97208.41;5090820;28;42384;-80
2024/03/31 10:35:04;;;;;;;13.45;3.30;;;;;;;32.28;28.77;97193.88;5090922;28;39076;-80
2024/03/31 10:37:32;;;;;;;12.93;3.65;;;;;;;32.59;27.77;97195.50;5091704;28;41901;-80
2024/03/31 10:40:01;;;;;;;13.23;3.17;;;;;;;32.65;27.24;97199.03;5073781;28;43264;-80
2024/03/31 10:42:28;;;;;;;11.90;3.03;;;;;;;33.15;27.52;97198.09;5091775;28;42906;-80
2024/03/31 10:44:57;;;;;;;11.93;3.05;;;;;;;34.11;27.71;97196.75;5073663;28;39847;-80
2024/03/31 10:47:24;;;;;;;11.55;2.83;;;;;;;35.02;25.73;97204.13;5073731;28;41693;-80
2024/03/31 10:49:57;;;;;;;13.65;3.40;;;;;;;35.00;25.41;97203.59;5090702;28;42909;-80
2024/03/31 10:52:26;;;;;;;14.77;4.00;;;;;;;36.10;25.43;97201.59;5089356;28;42272;-80
2024/03/31 10:54:55;;;;;;;14.20;3.58;;;;;;;35.86;25.01;97213.50;5073651;28;39059;-80
2024/03/31 10:57:22;;;;;;;12.65;3.33;;;;;;;36.00;24.88;97217.16;5073654;28;40984;-79
2024/03/31 10:59:50;;;;;;;13.52;3.38;;;;;;;35.86;24.12;97235.56;5125006;27;43381;-81
2024/03/31 11:02:21;;;;;;;10.77;3.35;;;;;;;35.42;24.21;97204.78;5073137;28;41909;-81
2024/03/31 11:05:02;;;;;;;12.48;2.88;;;;;;;35.27;24.11;97228.63;5090966;28;39042;-79
2024/03/31 11:07:29;;;;;;;17.67;3.72;;;;;;;35.44;24.07;97230.09;5090084;28;42613;-80
2024/03/31 11:09:57;;;;;;;15.73;3.40;;;;;;;35.46;24.64;97233.38;5107304;28;41901;-81
2024/03/31 11:12:24;;;;;;;15.80;4.18;;;;;;;35.97;24.77;97228.81;5090141;28;43050;-80
2024/03/31 11:14:52;;;;;;;14.10;3.65;;;;;;;36.63;24.87;97208.41;5091528;28;40445;-80
2024/03/31 11:17:20;;;;;;;17.75;3.35;;;;;;;37.03;23.52;97228.09;5091233;28;41797;-80
2024/03/31 11:19:47;;;;;;;12.13;3.53;;;;;;;37.39;22.73;97220.75;5090371;28;42817;-81
2024/03/31 11:22:15;;;;;;;11.38;3.10;;;;;;;37.72;22.57;97212.31;5091472;28;42058;-80
2024/03/31 11:24:42;;;;;;;13.55;3.90;;;;;;;37.47;21.98;97226.66;5090486;28;39939;-80
2024/03/31 11:27:09;;;;;;;16.55;4.55;;;;;;;37.90;23.00;97213.31;5091131;28;42091;-82
2024/03/31 11:29:37;;;;;;;13.38;3.35;;;;;;;37.75;20.94;97222.78;5089969;28;42990;-80
2024/03/31 11:32:05;;;;;;;15.77;4.25;;;;;;;37.11;23.06;97208.06;5089768;28;43036;-80
2024/03/31 11:34:35;;;;;;;18.55;3.75;;;;;;;36.65;22.59;97206.16;5073213;28;39240;-80
2024/03/31 11:37:02;;;;;;;13.38;3.70;;;;;;;35.58;22.78;97208.97;5124169;27;41461;-80
2024/03/31 11:39:33;;;;;;;15.60;3.50;;;;;;;34.88;23.44;97201.25;5106576;28;44939;-80
2024/03/31 11:42:00;;;;;;;13.32;3.90;;;;;;;34.73;24.28;97181.34;5120534;27;42430;-80
2024/03/31 11:44:28;;;;;;;16.15;3.63;;;;;;;35.45;22.90;97190.41;5107209;28;39082;-81
2024/03/31 11:46:54;;;;;;;11.20;3.38;;;;;;;35.48;22.33;97209.09;5072980;28;41204;-80
2024/03/31 11:49:22;;;;;;;13.82;3.80;;;;;;;35.60;22.68;97196.53;5090293;28;43186;-80
2024/03/31 11:51:50;;;;;;;16.23;4.05;;;;;;;35.57;22.35;97210.91;5093500;28;43257;-81
2024/03/31 11:54:18;;;;;;;12.18;3.42;;;;;;;35.46;22.39;97216.84;5094445;28;40001;-80
2024/03/31 11:56:45;;;;;;;11.75;3.08;;;;;;;35.22;24.35;97190.16;5076110;28;40833;-80
2024/03/31 11:59:13;;;;;;;14.45;3.40;;;;;;;34.67;23.03;97212.75;5092851;28;43335;-80
2024/03/31 12:01:40;;;;;;;15.68;3.92;;;;;;;34.69;23.19;97205.03;5093269;28;42290;-81
2024/03/31 12:04:08;;;;;;;16.27;3.80;;;;;;;34.76;22.90;97198.09;5093068;28;40583;-80
2024/03/31 12:06:34;;;;;;;16.48;4.50;;;;;;;34.86;23.84;97199.94;5092860;28;42587;-81
2024/03/31 12:09:04;;;;;;;11.10;3.65;;;;;;;35.58;24.23;97170.41;5127302;27;44281;-80
2024/03/31 12:11:32;;;;;;;14.07;3.65;;;;;;;37.04;22.30;97202.16;5092637;28;42513;-82
2024/03/31 12:14:00;;;;;;;15.95;3.80;;;;;;;37.79;21.48;97201.69;5075636;28;41918;-82
2024/03/31 12:16:27;;;;;;;12.55;3.78;;;;;;;38.49;20.04;97203.84;5092318;28;43599;-80
2024/03/31 12:18:55;;;;;;;13.60;2.88;;;;;;;38.03;20.57;97207.75;5109711;28;41830;-80
2024/03/31 12:21:22;;;;;;;12.68;3.00;;;;;;;37.75;21.89;97192.38;5092680;28;41112;-81
2024/03/31 12:23:50;;;;;;;17.67;3.72;;;;;;;37.55;20.70;97201.09;5094120;28;40940;-81
2024/03/31 12:26:20;;;;;;;10.68;3.53;;;;;;;36.59;21.48;97166.03;5109823;28;41387;-80
2024/03/31 12:28:48;;;;;;;12.40;3.25;;;;;;;35.68;22.19;97186.78;5092815;28;43313;-80
2024/03/31 12:31:16;;;;;;;9.85;3.10;;;;;;;36.17;22.85;97177.22;5092479;28;40683;-81
2024/03/31 12:33:44;;;;;;;9.77;3.10;;;;;;;37.43;22.24;97159.41;5126734;27;40093;-80
2024/03/31 12:36:11;;;;;;;7.57;2.60;;;;;;;37.27;21.68;97156.97;5075371;28;41633;-78
2024/03/31 12:38:39;;;;;;;12.57;3.20;;;;;;;35.93;21.34;97175.41;5075071;28;42381;-80
2024/03/31 12:41:05;;;;;;;15.18;3.45;;;;;;;34.60;22.41;97160.88;5109365;28;42241;-78
2024/03/31 12:43:34;;;;;;;15.40;2.80;;;;;;;33.64;22.91;97158.88;5094093;28;40567;-78
2024/03/31 12:46:08;;;;;;;9.23;3.20;;;;;;;32.94;23.88;97138.94;5092563;28;41828;-78
2024/03/31 12:48:37;;;;;;;12.25;3.35;;;;;;;32.62;25.19;97131.09;5092441;28;43823;-79
2024/03/31 12:51:05;;;;;;;12.02;3.25;;;;;;;32.32;25.42;97132.81;5075450;28;43906;-79
2024/03/31 12:53:33;;;;;;;14.40;2.90;;;;;;;31.90;25.07;97124.84;5109205;28;38565;-79
2024/03/31 12:56:00;;;;;;;15.60;3.63;;;;;;;31.26;25.55;97125.34;5092244;28;40624;-78
2024/03/31 12:58:28;;;;;;;11.73;3.30;;;;;;;30.89;26.47;97110.97;5074895;28;41644;-79
2024/03/31 13:00:57;;;;;;;8.03;3.43;;;;;;;30.35;26.62;97101.13;5092026;28;43236;-78
2024/03/31 13:03:25;;;;;;;9.37;2.53;;;;;;;29.91;28.07;97084.19;5125873;27;39792;-79
2024/03/31 13:05:51;;;;;;;12.43;2.90;;;;;;;29.62;29.13;97066.50;5091963;28;42134;-79
2024/03/31 13:08:20;;;;;;;9.13;3.37;;;;;;;29.30;28.89;97059.09;5074888;28;43431;-79
2024/03/31 13:10:47;;;;;;;9.90;3.17;;;;;;;28.99;30.02;97042.69;5093248;28;42184;-80
2024/03/31 13:13:15;;;;;;;14.53;3.60;;;;;;;28.41;29.77;97038.75;5109009;28;38875;-79
2024/03/31 13:15:42;;;;;;;13.53;2.87;;;;;;;28.02;30.81;97025.16;5091595;28;42189;-79
2024/03/31 13:18:11;;;;;;;10.43;2.93;;;;;;;27.73;31.92;96994.53;5075294;28;41623;-79
2024/03/31 13:20:38;;;;;;;12.23;2.67;;;;;;;27.85;31.69;97016.19;5093154;28;42861;-78
2024/03/31 13:23:05;;;;;;;10.67;3.00;;;;;;;27.78;31.42;97018.28;5125921;27;39806;-79
2024/03/31 13:25:32;;;;;;;15.17;3.10;;;;;;;27.99;31.18;96987.56;5093499;28;42772;-79
2024/03/31 13:28:00;;;;;;;15.00;2.93;;;;;;;28.34;31.28;96995.38;5091982;28;41966;-79
2024/03/31 13:30:28;;;;;;;8.80;3.27;;;;;;;28.75;31.34;96995.84;5091881;28;43521;-79
2024/03/31 13:32:56;;;;;;;15.20;3.53;;;;;;;28.99;30.63;96991.75;5125710;27;40042;-78
2024/03/31 13:35:24;;;;;;;12.53;3.43;;;;;;;29.09;31.08;97004.63;5075015;28;42168;-79
2024/03/31 13:37:52;;;;;;;9.80;2.87;;;;;;;29.22;31.21;96998.75;5091239;28;44747;-79
2024/03/31 13:40:18;;;;;;;10.77;2.47;;;;;;;29.13;30.86;96975.78;5091582;28;42165;-79
2024/03/31 13:42:46;;;;;;;12.47;3.20;;;;;;;28.93;30.23;97003.69;5074190;28;39997;-79
2024/03/31 13:45:14;;;;;;;14.37;3.50;;;;;;;28.20;30.76;96962.25;5091366;28;41156;-79
2024/03/31 13:47:41;;;;;;;12.23;2.43;;;;;;;28.21;31.43;96974.81;5091389;28;43787;-79
2024/03/31 13:50:08;;;;;;;9.50;2.97;;;;;;;28.52;31.50;96976.00;5074730;28;42712;-78
2024/03/31 13:52:37;;;;;;;13.13;2.93;;;;;;;28.82;32.08;96950.97;5091682;28;39765;-79
2024/03/31 13:55:07;;;;;;;10.10;2.83;;;;;;;29.16;31.02;96961.66;5091340;28;42292;-80
2024/03/31 13:57:35;;;;;;;12.40;3.17;;;;;;;29.25;31.04;96971.81;5091133;28;43253;-79
2024/03/31 14:00:03;;;;;;;12.43;2.43;;;;;;;29.23;30.94;96954.06;5091219;28;43155;-79
2024/03/31 14:02:40;;;;;;;14.00;3.10;;;;;;;29.20;30.28;96970.94;5090292;28;39440;-80
2024/03/31 14:05:06;;;;;;;11.53;3.07;;;;;;;29.18;30.87;96962.19;5125802;27;42707;-79
2024/03/31 14:07:34;;;;;;;8.87;2.47;;;;;;;29.42;30.13;96968.97;5090786;28;41738;-79
2024/03/31 14:10:03;;;;;;;8.13;2.43;;;;;;;29.92;30.26;96962.19;5092528;28;42610;-79
2024/03/31 14:12:32;;;;;;;8.63;2.10;;;;;;;30.26;28.00;96990.75;5091720;28;40000;-79
2024/03/31 14:14:58;;;;;;;11.07;2.70;;;;;;;30.55;27.63;96995.78;5090637;28;41135;-79
2024/03/31 14:17:26;;;;;;;12.37;2.60;;;;;;;30.17;27.56;96986.06;5073670;28;43585;-79
2024/03/31 14:19:52;;;;;;;9.50;2.60;;;;;;;29.97;28.05;97003.16;5091477;28;41269;-79
2024/03/31 14:22:20;;;;;;;8.00;2.37;;;;;;;29.82;28.80;96997.59;5092388;28;40187;-79
2024/03/31 14:24:47;;;;;;;9.97;2.53;;;;;;;29.55;28.28;96990.31;5091097;28;42018;-79
2024/03/31 14:27:16;;;;;;;12.93;2.63;;;;;;;28.93;27.12;96977.22;5090535;28;41863;-79
2024/03/31 14:29:42;;;;;;;4.67;1.40;;;;;;;28.64;28.35;96977.75;5073776;28;44070;-79
2024/03/31 14:32:10;;;;;;;8.33;1.67;;;;;;;28.45;29.53;96988.13;5092045;28;39963;-79